Time;durP1;ratioP1;P1;durP2;ratioP2;P2;SDS_P1;SDS_P2;PMS_P1;PMS_P2;Temp;Humidity;BMP_temperature;BMP_pressure;BME280_temperature;BME280_humidity;BME280_pressure;Samples;Min_cycle;Max_cycle;Signal;HPM_P1;HPM_P2
2021/07/29 00:02:07;;;;;;;4.00;3.70;;;;;;;19.26;65.63;99702.09;10543201;28;20044;-86
2021/07/29 00:07:09;;;;;;;4.22;3.92;;;;;;;19.24;65.75;99704.00;10523935;28;20157;-85
2021/07/29 00:12:11;;;;;;;4.30;4.00;;;;;;;19.07;66.99;99700.72;10539351;28;20134;-85
2021/07/29 00:17:27;;;;;;;4.25;3.90;;;;;;;19.10;66.83;99699.66;10520456;28;20134;-86
2021/07/29 00:22:29;;;;;;;10.82;4.30;;;;;;;19.13;66.61;99697.66;10522570;28;20524;-86
2021/07/29 00:27:33;;;;;;;5.03;4.63;;;;;;;19.08;66.75;99694.47;10547336;28;20047;-85
2021/07/29 00:32:36;;;;;;;4.85;4.20;;;;;;;18.91;67.34;99692.16;10538508;28;20044;-87
2021/07/29 00:37:38;;;;;;;4.43;3.85;;;;;;;18.83;68.01;99695.38;10538540;28;20397;-85
2021/07/29 00:42:41;;;;;;;4.25;3.95;;;;;;;18.89;67.60;99707.38;10521009;28;20040;-85
2021/07/29 00:47:44;;;;;;;4.72;4.20;;;;;;;18.91;67.48;99694.81;10543148;28;20339;-85
2021/07/29 00:53:08;;;;;;;3.55;3.35;;;;;;;19.01;66.79;99698.53;10536643;28;20044;-85
2021/07/29 00:58:09;;;;;;;4.40;4.00;;;;;;;18.93;67.40;99692.88;10546579;28;20051;-85
2021/07/29 01:03:11;;;;;;;3.83;3.53;;;;;;;18.73;68.11;99696.13;10542596;28;20040;-85
2021/07/29 01:08:13;;;;;;;4.45;4.05;;;;;;;18.40;70.55;99694.84;10536191;28;20120;-85
2021/07/29 01:13:14;;;;;;;4.05;3.75;;;;;;;18.27;70.50;99694.81;10553471;28;20040;-85
2021/07/29 01:18:16;;;;;;;3.72;3.42;;;;;;;18.27;71.01;99689.50;10536610;28;20066;-82
2021/07/29 01:23:18;;;;;;;4.18;3.88;;;;;;;18.27;70.88;99691.31;10527424;28;20098;-87
2021/07/29 01:28:19;;;;;;;4.18;3.78;;;;;;;18.32;71.06;99692.69;10566945;28;20052;-86
2021/07/29 01:33:21;;;;;;;4.25;3.95;;;;;;;18.37;70.66;99697.69;10565396;28;20036;-86
2021/07/29 01:38:23;;;;;;;3.58;3.30;;;;;;;18.38;70.25;99712.72;10539854;28;20102;-85
2021/07/29 01:43:25;;;;;;;4.22;3.92;;;;;;;18.12;70.96;99698.56;10558203;28;20040;-85
2021/07/29 01:48:27;;;;;;;3.97;3.58;;;;;;;17.88;71.90;99687.75;10558288;28;20055;-85
2021/07/29 01:53:29;;;;;;;3.75;3.40;;;;;;;17.94;71.42;99700.66;10557020;28;20083;-85
2021/07/29 01:58:31;;;;;;;4.22;3.92;;;;;;;17.80;71.87;99690.94;10539413;28;20048;-85
2021/07/29 02:03:32;;;;;;;4.28;3.88;;;;;;;17.61;72.74;99691.28;10563357;28;20040;-86
2021/07/29 02:08:34;;;;;;;3.90;3.50;;;;;;;17.75;71.84;99694.84;10569261;28;20039;-86
2021/07/29 02:13:35;;;;;;;3.92;3.65;;;;;;;17.72;71.99;99693.22;10546792;28;20401;-85
2021/07/29 02:18:37;;;;;;;3.38;3.17;;;;;;;17.95;70.61;99691.72;10544790;28;20465;-86
2021/07/29 02:23:38;;;;;;;3.13;2.92;;;;;;;17.76;71.46;99694.78;10540746;28;20055;-84
2021/07/29 02:28:42;;;;;;;3.70;3.40;;;;;;;17.68;71.71;99693.53;10540264;28;20412;-86
2021/07/29 02:33:43;;;;;;;3.28;3.00;;;;;;;17.89;70.64;99697.47;10558312;28;20097;-85
2021/07/29 02:38:46;;;;;;;4.03;3.20;;;;;;;17.89;70.44;99700.13;10538599;28;20048;-85
2021/07/29 02:43:47;;;;;;;3.80;3.50;;;;;;;17.50;71.94;99708.91;10536670;28;20112;-84
2021/07/29 02:48:49;;;;;;;4.10;3.80;;;;;;;17.26;73.12;99708.66;10535309;28;20063;-85
2021/07/29 02:53:50;;;;;;;3.72;3.42;;;;;;;17.08;73.97;99714.22;10554808;28;20082;-84
2021/07/29 02:58:52;;;;;;;3.67;3.38;;;;;;;16.96;74.71;99719.47;10535841;28;20363;-85
2021/07/29 03:03:53;;;;;;;3.42;3.20;;;;;;;16.83;75.15;99714.06;10535185;28;20048;-85
2021/07/29 03:08:55;;;;;;;4.10;3.80;;;;;;;16.76;75.25;99708.28;10534677;28;20147;-85
2021/07/29 03:13:57;;;;;;;3.53;3.22;;;;;;;16.69;75.48;99719.34;10533695;28;20126;-85
2021/07/29 03:18:58;;;;;;;3.70;3.40;;;;;;;16.73;75.62;99720.88;10534650;28;20048;-85
2021/07/29 03:24:00;;;;;;;3.05;2.78;;;;;;;16.73;75.67;99703.16;10535091;28;20060;-86
2021/07/29 03:29:01;;;;;;;4.05;3.00;;;;;;;16.89;74.61;99711.03;10553941;28;20074;-86
2021/07/29 03:34:03;;;;;;;3.00;2.80;;;;;;;16.97;74.20;99711.41;10535451;28;20074;-85
2021/07/29 03:39:06;;;;;;;3.38;3.13;;;;;;;16.79;74.87;99717.88;10533398;28;20048;-83
2021/07/29 03:44:07;;;;;;;3.28;3.08;;;;;;;16.90;73.67;99715.38;10517606;28;20113;-85
2021/07/29 03:49:09;;;;;;;4.65;2.17;;;;;;;17.20;72.04;99719.69;10549544;28;20060;-85
2021/07/29 03:54:10;;;;;;;2.33;2.13;;;;;;;17.38;71.16;99723.81;10532058;28;20048;-85
2021/07/29 03:59:12;;;;;;;2.35;2.15;;;;;;;17.57;70.00;99724.31;10532680;28;20044;-85
2021/07/29 04:04:14;;;;;;;2.40;2.20;;;;;;;17.79;69.02;99720.28;10517394;28;20477;-85
2021/07/29 04:09:15;;;;;;;2.63;2.42;;;;;;;17.83;68.55;99724.44;10534352;28;20044;-85
2021/07/29 04:14:16;;;;;;;2.15;1.92;;;;;;;18.04;67.79;99735.47;10535332;28;20151;-85
2021/07/29 04:19:19;;;;;;;2.35;1.90;;;;;;;18.17;67.32;99730.16;10551773;28;20032;-85
2021/07/29 04:24:20;;;;;;;2.05;1.88;;;;;;;18.37;66.56;99724.31;10534441;28;20135;-84
2021/07/29 04:29:23;;;;;;;2.25;2.05;;;;;;;18.34;66.42;99727.19;10551893;28;20401;-85
2021/07/29 04:34:24;;;;;;;2.05;1.80;;;;;;;18.57;65.58;99728.28;10536139;28;20047;-86
2021/07/29 04:39:27;;;;;;;2.30;2.10;;;;;;;18.71;64.81;99730.00;10554162;28;20116;-84
2021/07/29 04:44:29;;;;;;;2.58;2.05;;;;;;;18.75;64.76;99735.00;10575099;28;20083;-84
2021/07/29 04:49:30;;;;;;;2.83;1.90;;;;;;;18.83;64.79;99729.97;10557582;28;20098;-85
2021/07/29 04:54:32;;;;;;;2.40;2.00;;;;;;;18.81;64.75;99739.88;10553093;28;20052;-84
2021/07/29 04:59:36;;;;;;;2.05;1.70;;;;;;;19.04;64.27;99729.44;10526912;28;20047;-85
2021/07/29 05:04:37;;;;;;;2.15;1.95;;;;;;;19.07;64.74;99723.84;10523357;28;20048;-85
2021/07/29 05:09:39;;;;;;;2.00;1.80;;;;;;;19.41;63.64;99732.94;10516929;28;20155;-87
2021/07/29 05:14:40;;;;;;;1.80;1.70;;;;;;;19.60;63.51;99724.44;10517316;28;20106;-84
2021/07/29 05:19:42;;;;;;;1.90;1.60;;;;;;;19.75;61.33;99733.16;10532862;28;20044;-85
2021/07/29 05:24:44;;;;;;;2.35;1.92;;;;;;;19.70;61.86;99735.28;10549515;28;20052;-86
2021/07/29 05:29:45;;;;;;;3.50;1.90;;;;;;;19.64;62.25;99739.25;10533995;28;20040;-85
2021/07/29 05:34:47;;;;;;;2.13;1.90;;;;;;;19.62;62.21;99735.88;10532688;28;20154;-82
2021/07/29 05:39:48;;;;;;;3.63;1.60;;;;;;;19.52;62.24;99735.69;10564194;28;20040;-82
2021/07/29 05:44:50;;;;;;;1.90;1.70;;;;;;;19.55;62.04;99732.75;10580804;28;20151;-84
2021/07/29 05:49:52;;;;;;;2.75;1.77;;;;;;;19.82;60.82;99737.88;10563750;28;20028;-86
2021/07/29 05:54:53;;;;;;;2.80;2.00;;;;;;;19.93;60.33;99742.44;10534794;28;20108;-85
2021/07/29 05:59:55;;;;;;;4.60;1.80;;;;;;;20.22;58.84;99737.53;10535170;28;20044;-85
2021/07/29 06:04:56;;;;;;;3.97;2.17;;;;;;;20.63;57.81;99754.91;10562270;28;20028;-87
2021/07/29 06:09:58;;;;;;;2.03;1.83;;;;;;;21.06;55.70;99738.16;10553200;28;20051;-87
2021/07/29 06:15:01;;;;;;;2.75;1.75;;;;;;;21.49;55.78;99753.44;10557449;28;20048;-85
2021/07/29 06:20:07;;;;;;;2.10;1.83;;;;;;;21.85;53.54;99739.69;10533909;28;20040;-85
2021/07/29 06:25:10;;;;;;;3.55;1.70;;;;;;;22.12;53.23;99738.38;10555308;28;20508;-87
2021/07/29 06:30:12;;;;;;;2.88;1.55;;;;;;;22.33;52.92;99730.38;10524994;28;20044;-85
2021/07/29 06:35:13;;;;;;;1.92;1.77;;;;;;;22.48;52.40;99733.56;10555603;28;20044;-85
2021/07/29 06:40:15;;;;;;;1.60;1.50;;;;;;;22.30;49.93;99738.66;10553678;28;20036;-82
2021/07/29 06:45:16;;;;;;;1.75;1.65;;;;;;;22.40;50.89;99735.06;10553997;28;20102;-83
2021/07/29 06:50:18;;;;;;;2.35;1.80;;;;;;;22.74;51.57;99744.69;10552716;28;20536;-84
2021/07/29 06:55:19;;;;;;;1.92;1.60;;;;;;;22.84;49.91;99753.63;10533606;28;20044;-84
2021/07/29 07:00:21;;;;;;;2.38;1.60;;;;;;;22.84;48.24;99756.31;10534201;28;20450;-85
2021/07/29 07:05:23;;;;;;;2.35;1.60;;;;;;;23.27;47.43;99742.69;10553690;28;20048;-85
2021/07/29 07:10:24;;;;;;;2.17;1.80;;;;;;;23.10;47.20;99746.84;10537340;28;20093;-83
2021/07/29 07:15:26;;;;;;;1.75;1.48;;;;;;;23.07;46.17;99743.63;10559234;28;20040;-83
2021/07/29 07:20:27;;;;;;;1.50;1.40;;;;;;;23.06;46.35;99742.75;10583941;28;20039;-83
2021/07/29 07:25:29;;;;;;;2.42;1.50;;;;;;;22.99;46.84;99751.47;10585529;28;20043;-83
2021/07/29 07:30:34;;;;;;;1.52;1.17;;;;;;;23.01;45.07;99750.34;10579859;28;20047;-81
2021/07/29 07:35:35;;;;;;;1.88;1.35;;;;;;;23.28;45.40;99741.69;10528713;28;20050;-82
2021/07/29 07:40:37;;;;;;;2.85;1.13;;;;;;;23.09;43.03;99741.63;10547818;28;20406;-83
2021/07/29 07:45:39;;;;;;;1.30;1.20;;;;;;;23.04;44.33;99735.84;10532030;28;20401;-82
2021/07/29 07:50:41;;;;;;;1.67;1.25;;;;;;;23.06;43.06;99737.38;10528647;28;20107;-84
2021/07/29 07:55:42;;;;;;;4.38;1.50;;;;;;;22.95;43.19;99740.19;10551448;28;20404;-84
2021/07/29 08:00:44;;;;;;;3.08;1.45;;;;;;;22.77;42.81;99736.41;10550308;28;20033;-82
2021/07/29 08:05:46;;;;;;;1.90;1.40;;;;;;;22.89;43.91;99738.88;10538944;28;20092;-83
2021/07/29 08:10:50;;;;;;;1.70;1.50;;;;;;;22.91;43.71;99725.34;10552336;28;20044;-83
2021/07/29 08:15:51;;;;;;;2.80;1.63;;;;;;;22.95;44.60;99718.72;10551483;28;20063;-82
2021/07/29 08:20:53;;;;;;;4.32;1.67;;;;;;;23.16;43.24;99716.84;10550660;28;20063;-82
2021/07/29 08:25:54;;;;;;;3.78;1.60;;;;;;;23.21;42.85;99707.53;10535629;28;20044;-81
2021/07/29 08:30:56;;;;;;;1.67;1.48;;;;;;;23.01;43.41;99706.59;10550581;28;20044;-82
2021/07/29 08:35:57;;;;;;;3.30;1.65;;;;;;;23.30;43.39;99695.97;10550321;28;20051;-80
2021/07/29 08:40:59;;;;;;;1.63;1.50;;;;;;;23.48;44.18;99694.31;10537920;28;20466;-80
2021/07/29 08:46:07;;;;;;;3.45;1.60;;;;;;;23.83;42.26;99696.47;10556516;28;20476;-80
2021/07/29 08:51:08;;;;;;;1.95;1.23;;;;;;;24.23;41.51;99697.28;10559635;28;20040;-80
2021/07/29 08:56:13;;;;;;;2.63;1.45;;;;;;;24.50;41.56;99697.38;10537176;28;20052;-79
2021/07/29 09:01:15;;;;;;;2.80;1.50;;;;;;;24.52;39.40;99711.50;10556242;28;20040;-80
2021/07/29 09:06:17;;;;;;;3.08;1.65;;;;;;;24.69;39.03;99706.38;10558320;28;20048;-80
2021/07/29 09:11:29;;;;;;;3.05;1.58;;;;;;;24.89;39.04;99703.47;10557071;28;20102;-80
2021/07/29 09:16:34;;;;;;;2.47;1.35;;;;;;;25.23;38.69;99704.72;10539431;28;20066;-80
2021/07/29 09:21:36;;;;;;;2.33;1.57;;;;;;;25.50;39.12;99702.03;10559114;28;20040;-80
2021/07/29 09:26:57;;;;;;;1.58;1.48;;;;;;;25.65;38.31;99692.41;10572760;28;20111;-80
2021/07/29 09:32:09;;;;;;;4.13;1.73;;;;;;;25.60;38.33;99691.19;10575648;28;20036;-79
2021/07/29 09:37:11;;;;;;;2.63;1.70;;;;;;;25.65;38.72;99683.47;10576052;28;20040;-79
2021/07/29 09:42:19;;;;;;;3.50;1.70;;;;;;;26.03;37.96;99687.72;10573070;28;20067;-81
2021/07/29 09:47:21;;;;;;;3.63;1.98;;;;;;;25.58;38.54;99680.53;10564184;28;20359;-79
2021/07/29 09:52:24;;;;;;;1.80;1.60;;;;;;;25.67;36.59;99682.31;10583360;28;20052;-80
2021/07/29 09:57:26;;;;;;;5.18;1.85;;;;;;;24.87;38.42;99686.63;10566809;28;20134;-79
2021/07/29 10:02:31;;;;;;;5.13;2.00;;;;;;;24.48;39.63;99693.13;10567885;28;20036;-80
2021/07/29 10:07:37;;;;;;;3.85;2.13;;;;;;;24.56;40.55;99690.56;10564419;28;20405;-80
2021/07/29 10:12:39;;;;;;;3.72;1.85;;;;;;;25.44;40.04;99683.78;10564484;28;20036;-81
2021/07/29 10:17:46;;;;;;;2.35;1.73;;;;;;;25.63;39.00;99674.69;10567588;28;20052;-80
2021/07/29 10:22:49;;;;;;;2.55;1.70;;;;;;;25.69;39.12;99679.50;10546316;28;20039;-80
2021/07/29 10:28:23;;;;;;;3.15;1.88;;;;;;;25.35;39.04;99684.69;10562896;28;20048;-79
2021/07/29 10:33:27;;;;;;;2.80;1.73;;;;;;;24.54;40.08;99690.72;10571730;28;20047;-80
2021/07/29 10:38:43;;;;;;;2.25;2.03;;;;;;;24.58;40.63;99707.41;10547950;28;20462;-80
2021/07/29 10:43:45;;;;;;;4.20;2.05;;;;;;;24.62;41.21;99693.53;10553822;28;20124;-80
2021/07/29 10:49:12;;;;;;;2.95;2.15;;;;;;;25.42;40.52;99701.94;10551919;28;20075;-79
2021/07/29 10:54:15;;;;;;;2.05;1.50;;;;;;;25.94;39.68;99701.25;10573779;28;20036;-80
2021/07/29 10:59:18;;;;;;;2.58;1.77;;;;;;;26.04;39.85;99678.63;10572052;28;20047;-80
2021/07/29 11:04:19;;;;;;;1.92;1.80;;;;;;;25.97;38.71;99684.81;10565337;28;20048;-80
2021/07/29 11:09:21;;;;;;;2.65;1.88;;;;;;;25.78;37.39;99677.75;10564379;28;20054;-81
2021/07/29 11:14:29;;;;;;;2.35;1.80;;;;;;;25.81;38.36;99690.88;10548939;28;20036;-81
2021/07/29 11:19:48;;;;;;;4.57;2.22;;;;;;;24.86;39.42;99684.09;10572518;28;20112;-81
2021/07/29 11:24:50;;;;;;;3.58;1.98;;;;;;;25.04;40.30;99676.91;10582515;28;20044;-80
2021/07/29 11:29:57;;;;;;;25.63;11.38;;;;;;;25.74;40.27;99671.78;10584622;28;20051;-80
2021/07/29 11:34:58;;;;;;;3.38;1.63;;;;;;;25.85;37.82;99668.03;10551165;28;20048;-81
2021/07/29 11:40:00;;;;;;;3.88;2.08;;;;;;;25.54;38.98;99675.63;10569325;28;20102;-79
2021/07/29 11:45:03;;;;;;;2.20;2.00;;;;;;;26.14;39.58;99678.53;10557521;28;20225;-81
2021/07/29 11:50:05;;;;;;;3.60;1.70;;;;;;;26.09;39.20;99662.84;10569485;28;20028;-81
2021/07/29 11:55:11;;;;;;;3.08;1.90;;;;;;;25.64;40.62;99658.41;10584767;28;20027;-80
2021/07/29 12:00:29;;;;;;;6.25;2.03;;;;;;;26.40;39.67;99651.59;10564500;28;20465;-83
2021/07/29 12:05:33;;;;;;;3.40;1.40;;;;;;;26.88;37.61;99664.50;10569750;28;20032;-80
2021/07/29 12:10:35;;;;;;;3.50;1.70;;;;;;;27.06;38.08;99644.69;10566083;28;20044;-81
2021/07/29 12:15:38;;;;;;;1.92;1.60;;;;;;;26.66;36.33;99641.66;10546104;28;20461;-81
2021/07/29 12:20:41;;;;;;;1.98;1.40;;;;;;;26.08;37.89;99638.78;10543331;28;20101;-83
2021/07/29 12:25:45;;;;;;;2.30;1.80;;;;;;;26.65;36.05;99622.94;10561674;28;20043;-81
2021/07/29 12:30:48;;;;;;;2.45;1.50;;;;;;;26.84;35.18;99625.38;10545754;28;20060;-81
2021/07/29 12:35:58;;;;;;;4.22;2.13;;;;;;;27.00;35.48;99629.97;10558649;28;20044;-81
2021/07/29 12:41:00;;;;;;;2.78;2.00;;;;;;;27.16;37.05;99624.66;10564291;28;20235;-83
2021/07/29 12:46:05;;;;;;;1.98;1.52;;;;;;;26.57;37.32;99621.06;10559586;28;20063;-82
2021/07/29 12:51:07;;;;;;;3.80;1.80;;;;;;;26.60;37.36;99628.81;10542916;28;20486;-80
2021/07/29 12:56:13;;;;;;;3.35;1.50;;;;;;;26.82;35.23;99624.69;10560402;28;20071;-83
2021/07/29 13:01:18;;;;;;;3.33;1.90;;;;;;;26.58;35.72;99621.91;10560606;28;20058;-82
2021/07/29 13:06:20;;;;;;;4.90;2.57;;;;;;;26.14;37.02;99617.44;10555647;28;20059;-81
2021/07/29 13:11:24;;;;;;;4.90;1.83;;;;;;;26.30;36.73;99608.59;10537937;28;20048;-81
2021/07/29 13:16:28;;;;;;;3.60;1.65;;;;;;;26.06;38.03;99609.28;10543125;28;20048;-83
2021/07/29 13:21:29;;;;;;;2.42;1.90;;;;;;;26.61;36.52;99603.56;10547207;28;20450;-81
2021/07/29 13:26:31;;;;;;;3.33;1.88;;;;;;;26.78;35.35;99603.59;10526650;28;20052;-84
2021/07/29 13:31:35;;;;;;;3.45;1.63;;;;;;;26.64;35.10;99589.75;10543261;28;20520;-81
2021/07/29 13:36:37;;;;;;;2.67;1.80;;;;;;;26.51;35.07;99578.56;10560093;28;20094;-82
2021/07/29 13:41:39;;;;;;;2.40;1.60;;;;;;;25.86;37.40;99600.59;10556607;28;20040;-82
2021/07/29 13:46:41;;;;;;;2.83;1.85;;;;;;;26.40;36.09;99595.84;10560922;28;20150;-83
2021/07/29 13:51:43;;;;;;;2.25;1.75;;;;;;;26.75;35.94;99582.38;10560280;28;20068;-82
2021/07/29 13:56:45;;;;;;;4.63;1.80;;;;;;;26.52;36.25;99588.38;10540410;28;20052;-82
2021/07/29 14:01:46;;;;;;;4.20;1.80;;;;;;;26.46;36.01;99583.59;10560519;28;20132;-81
2021/07/29 14:06:49;;;;;;;3.85;1.95;;;;;;;26.62;36.29;99572.06;10559209;28;20044;-81
2021/07/29 14:11:51;;;;;;;3.70;2.05;;;;;;;26.42;37.04;99571.44;10558045;28;20523;-81
2021/07/29 14:16:52;;;;;;;2.67;1.90;;;;;;;26.20;37.20;99561.22;10536862;28;20056;-81
2021/07/29 14:27:01;;;;;;;1.70;1.60;;;;;;;25.72;36.44;99573.31;10534736;28;20064;-82
2021/07/29 14:32:03;;;;;;;2.13;1.80;;;;;;;25.84;37.99;99578.34;10534190;28;20040;-84
2021/07/29 14:37:05;;;;;;;1.80;1.70;;;;;;;26.28;36.61;99567.50;10538996;22;20037;-67
2021/07/29 14:42:06;;;;;;;1.80;1.70;;;;;;;26.48;35.00;99564.59;10475982;28;20045;-68
2021/07/29 14:52:30;;;;;;;4.85;2.10;;;;;;;25.67;36.93;99571.09;10495844;28;20117;-68
2021/07/29 16:11:51;;;;;;;2.78;2.17;;;;;;;25.52;34.77;99554.69;10473987;28;20044;-68
2021/07/29 16:16:53;;;;;;;2.20;2.00;;;;;;;25.41;34.72;99552.22;10476669;28;20138;-67
2021/07/29 16:21:55;;;;;;;2.05;1.83;;;;;;;25.29;35.84;99550.81;10473288;28;20056;-68
2021/07/29 16:26:56;;;;;;;2.35;1.90;;;;;;;25.38;35.33;99561.47;10491061;28;20120;-69
2021/07/29 16:31:57;;;;;;;3.10;2.10;;;;;;;25.38;36.17;99558.78;10491196;28;20064;-70
2021/07/29 16:36:59;;;;;;;4.32;2.25;;;;;;;25.26;35.75;99556.47;10472967;28;20094;-69
2021/07/29 16:42:05;;;;;;;2.38;2.17;;;;;;;25.04;37.00;99560.44;10491013;28;20466;-69
2021/07/29 16:47:07;;;;;;;3.85;2.08;;;;;;;24.85;34.99;99569.50;10490856;28;20040;-68
2021/07/29 16:52:08;;;;;;;4.65;1.92;;;;;;;24.60;35.70;99566.50;10472176;28;20059;-68
2021/07/29 16:57:10;;;;;;;2.03;1.92;;;;;;;24.40;36.20;99573.84;10472224;28;20055;-68
2021/07/29 17:02:12;;;;;;;2.65;1.85;;;;;;;24.33;35.64;99567.31;10471937;28;20043;-67
2021/07/29 17:07:14;;;;;;;2.40;1.90;;;;;;;24.38;35.91;99559.69;10455699;28;20432;-69
2021/07/29 17:12:15;;;;;;;3.15;1.75;;;;;;;24.37;36.32;99573.28;10490685;28;20437;-68
2021/07/29 17:17:17;;;;;;;4.13;1.95;;;;;;;24.26;36.49;99573.44;10490830;28;20037;-66
2021/07/29 17:22:19;;;;;;;3.20;1.73;;;;;;;24.09;36.79;99575.06;10472236;28;20040;-67
2021/07/29 17:27:20;;;;;;;8.98;2.15;;;;;;;23.97;36.71;99578.91;10491301;28;20048;-68
2021/07/29 17:32:22;;;;;;;2.10;1.80;;;;;;;23.83;36.83;99582.91;10490496;28;20036;-68
2021/07/29 17:37:23;;;;;;;3.58;1.98;;;;;;;23.82;37.05;99583.91;10491036;28;20373;-67
2021/07/29 17:42:25;;;;;;;4.15;1.60;;;;;;;23.72;37.68;99583.06;10494828;28;20047;-68
2021/07/29 17:47:27;;;;;;;2.13;1.92;;;;;;;23.55;38.33;99581.91;10475529;28;20081;-69
2021/07/29 17:52:29;;;;;;;2.70;1.67;;;;;;;23.50;39.25;99587.69;10486526;28;20040;-68
2021/07/29 17:57:31;;;;;;;2.90;1.70;;;;;;;23.30;39.05;99581.50;10489919;28;20048;-67
2021/07/29 18:02:33;;;;;;;3.80;1.90;;;;;;;23.38;38.63;99584.34;10490516;28;20040;-69
2021/07/29 18:07:37;;;;;;;1.52;1.42;;;;;;;23.36;38.07;99591.66;10498248;28;20466;-68
2021/07/29 18:12:39;;;;;;;6.10;1.95;;;;;;;23.13;39.00;99591.09;10502461;28;20127;-67
2021/07/29 18:17:40;;;;;;;2.72;2.22;;;;;;;23.10;39.07;99582.47;10480010;28;20045;-69
2021/07/29 18:22:42;;;;;;;1.63;1.42;;;;;;;23.11;39.19;99587.72;10498546;28;20315;-67
2021/07/29 18:27:46;;;;;;;1.80;1.65;;;;;;;22.76;39.46;99585.50;10497410;28;20060;-68
2021/07/29 18:32:48;;;;;;;2.90;1.77;;;;;;;22.67;39.77;99597.88;10497274;28;20050;-67
2021/07/29 18:37:51;;;;;;;2.17;1.50;;;;;;;22.79;39.42;99592.41;10497549;28;20124;-69
2021/07/29 18:42:53;;;;;;;2.10;1.55;;;;;;;22.70;40.39;99611.97;10497277;28;20140;-68
2021/07/29 18:47:58;;;;;;;2.30;1.92;;;;;;;22.47;40.94;99608.66;10478841;28;20350;-68
2021/07/29 18:53:01;;;;;;;2.10;1.90;;;;;;;22.22;41.37;99615.31;10497318;28;20041;-70
2021/07/29 18:58:03;;;;;;;1.73;1.63;;;;;;;22.07;42.46;99618.31;10496657;28;20457;-69
2021/07/29 19:03:05;;;;;;;3.70;1.92;;;;;;;22.02;42.48;99627.72;10495683;28;20055;-68
2021/07/29 19:08:13;;;;;;;2.53;1.90;;;;;;;21.91;42.47;99633.97;10495546;28;20462;-68
2021/07/29 19:13:15;;;;;;;2.75;2.30;;;;;;;21.88;42.55;99637.78;10495404;28;20082;-69
2021/07/29 19:18:16;;;;;;;2.30;1.65;;;;;;;21.90;42.32;99635.78;10495488;28;20354;-68
2021/07/29 19:23:35;;;;;;;2.45;1.70;;;;;;;21.96;42.07;99645.16;10495696;28;20477;-68
2021/07/29 19:28:37;;;;;;;1.67;1.40;;;;;;;21.83;42.91;99648.00;10495354;28;20057;-68
2021/07/29 19:33:39;;;;;;;3.95;1.65;;;;;;;21.62;43.95;99652.50;10495260;28;20040;-68
2021/07/29 19:38:41;;;;;;;1.92;1.58;;;;;;;21.40;44.48;99651.59;10495524;28;20386;-68
2021/07/29 19:43:45;;;;;;;2.75;1.60;;;;;;;21.63;43.31;99656.84;10495369;28;20106;-68
2021/07/29 19:48:47;;;;;;;2.15;1.80;;;;;;;21.57;43.48;99660.06;10494505;28;20064;-69
2021/07/29 19:53:49;;;;;;;2.65;1.70;;;;;;;21.48;43.77;99663.50;10476310;28;20106;-69
2021/07/29 19:58:50;;;;;;;2.10;1.80;;;;;;;21.33;44.22;99676.28;10493648;28;20036;-69
2021/07/29 20:03:53;;;;;;;2.67;1.70;;;;;;;20.90;46.24;99666.41;10493425;28;20102;-68
2021/07/29 20:08:55;;;;;;;3.55;1.73;;;;;;;20.90;45.02;99666.41;10492825;28;20098;-70
2021/07/29 20:13:56;;;;;;;3.78;1.52;;;;;;;20.99;44.55;99671.00;10475078;28;20044;-67
2021/07/29 20:19:01;;;;;;;2.38;1.42;;;;;;;20.92;44.47;99675.97;10492877;28;20096;-69
2021/07/29 20:24:03;;;;;;;3.05;1.60;;;;;;;20.98;44.38;99679.13;10492588;28;20064;-69
2021/07/29 20:29:05;;;;;;;2.17;2.00;;;;;;;20.94;45.05;99675.88;10491923;28;20413;-69
2021/07/29 20:34:07;;;;;;;2.55;1.83;;;;;;;20.69;46.80;99676.97;10491188;28;20036;-68
2021/07/29 20:39:09;;;;;;;1.67;1.40;;;;;;;20.71;45.68;99680.34;10523659;22;20067;-71
2021/07/29 20:44:10;;;;;;;2.42;1.80;;;;;;;20.45;46.40;99681.53;10517700;28;20425;-71
2021/07/29 20:49:12;;;;;;;2.80;1.52;;;;;;;20.30;46.76;99679.09;10536446;28;20040;-73
2021/07/29 20:54:16;;;;;;;3.33;2.13;;;;;;;20.07;47.42;99677.38;10501052;28;20044;-72
2021/07/29 20:59:18;;;;;;;1.95;1.30;;;;;;;20.09;47.65;99686.09;10535076;28;20052;-72
2021/07/29 21:04:20;;;;;;;3.17;1.40;;;;;;;20.12;47.05;99676.03;10516616;28;20134;-72
2021/07/29 21:09:21;;;;;;;4.88;1.60;;;;;;;19.86;47.86;99680.69;10534689;28;20098;-72
2021/07/29 21:14:23;;;;;;;2.13;1.58;;;;;;;19.79;48.34;99690.13;10534862;28;20159;-72
2021/07/29 21:19:24;;;;;;;3.05;1.73;;;;;;;19.57;49.79;99690.00;10535248;28;20366;-71
2021/07/29 21:24:26;;;;;;;4.10;1.60;;;;;;;19.50;49.42;99694.94;10534766;28;20353;-71
2021/07/29 21:29:28;;;;;;;4.13;1.80;;;;;;;19.47;49.14;99687.16;10534324;28;20051;-71
2021/07/29 21:34:29;;;;;;;5.15;1.83;;;;;;;19.64;48.45;99693.94;10534602;28;20392;-72
2021/07/29 21:39:33;;;;;;;2.42;1.50;;;;;;;19.45;49.30;99694.44;10519427;28;20048;-73
2021/07/29 21:44:34;;;;;;;2.90;1.40;;;;;;;19.33;50.34;99690.00;10542131;28;20440;-73
2021/07/29 21:49:36;;;;;;;4.72;2.15;;;;;;;19.07;51.13;99699.88;10524217;28;20089;-71
2021/07/29 21:54:37;;;;;;;3.25;1.73;;;;;;;19.08;49.81;99697.13;10541609;28;20059;-71
2021/07/29 21:59:39;;;;;;;3.78;1.70;;;;;;;19.08;50.26;99702.47;10523117;28;20147;-71
2021/07/29 22:04:40;;;;;;;3.05;1.35;;;;;;;19.10;49.73;99692.53;10523072;28;20055;-71
2021/07/29 22:09:42;;;;;;;2.15;1.50;;;;;;;18.92;49.98;99695.66;10541913;28;20040;-73
2021/07/29 22:14:47;;;;;;;2.80;1.75;;;;;;;18.83;50.53;99695.38;10523639;28;20036;-71
2021/07/29 22:19:48;;;;;;;2.70;1.50;;;;;;;18.78;50.34;99700.16;10541533;28;20359;-72
2021/07/29 22:24:50;;;;;;;2.10;1.67;;;;;;;18.75;50.60;99700.38;10522215;28;20059;-72
2021/07/29 22:29:52;;;;;;;3.75;1.48;;;;;;;18.64;50.81;99684.28;10522745;28;20051;-71
2021/07/29 22:34:53;;;;;;;3.15;1.77;;;;;;;18.56;51.40;99703.47;10522840;28;20040;-73
2021/07/29 22:39:55;;;;;;;3.05;1.60;;;;;;;18.60;51.28;99698.78;10522339;28;20056;-71
2021/07/29 22:44:56;;;;;;;3.95;1.70;;;;;;;18.41;51.75;99704.50;10540059;28;20477;-72
2021/07/29 22:49:58;;;;;;;1.58;1.48;;;;;;;18.41;51.51;99704.50;10539386;28;20035;-72
2021/07/29 22:55:00;;;;;;;2.20;1.58;;;;;;;18.36;52.47;99696.84;10521298;28;20481;-72
2021/07/29 23:00:06;;;;;;;2.95;1.80;;;;;;;18.31;52.08;99701.66;10539206;28;20063;-72
2021/07/29 23:05:08;;;;;;;4.00;1.85;;;;;;;18.10;52.55;99706.63;10521091;28;20516;-71
2021/07/29 23:10:10;;;;;;;3.80;1.90;;;;;;;18.05;52.04;99711.41;10539386;28;20051;-71
2021/07/29 23:15:11;;;;;;;4.88;1.60;;;;;;;17.98;52.37;99707.47;10538765;28;20098;-71
2021/07/29 23:20:13;;;;;;;2.22;2.03;;;;;;;17.87;53.07;99704.66;10538750;28;20071;-72
2021/07/29 23:25:26;;;;;;;1.95;1.55;;;;;;;17.72;53.77;99703.88;10539004;28;20047;-72
2021/07/29 23:30:28;;;;;;;2.20;1.80;;;;;;;17.71;53.06;99703.94;10538575;28;20404;-70
2021/07/29 23:35:30;;;;;;;2.20;1.80;;;;;;;17.87;52.33;99696.69;10519740;28;20091;-71
2021/07/29 23:40:33;;;;;;;2.15;1.98;;;;;;;17.83;52.45;99695.19;10519501;28;20442;-71
2021/07/29 23:45:35;;;;;;;2.22;2.00;;;;;;;17.76;52.27;99691.25;10519362;28;20048;-71
2021/07/29 23:50:38;;;;;;;2.30;2.10;;;;;;;17.57;52.98;99679.13;10518941;28;20138;-71
2021/07/29 23:55:41;;;;;;;3.15;1.80;;;;;;;17.62;52.72;99663.75;10537549;28;20036;-72
